** WELKOM OP ONZE WEBSITE MET ACTUELE WEERDATA VANUIT IZEGEM **
Het weer levert geen direct gevaar op.    Er zijn geen waarschuwingen afgegeven.

Weercam te Izegem Meer informatie Weercam te Izegem


Lokaal brand risico:
FWI


Regionaal brand risico: Meer informatie



METAR rapporten vliegvelden

   
EBOS - Oostende Airport, Belgium
Afstand tot: NW 39 km
Gewijzigd: 22-10-2018 12:20
Grotendeels bewolkt  
Grotendeels bewolkt  
   Wind: Noorden 25.9 km/h
Wind: Noorden 25.9 km/h
Temperatuur: 14°C
Dauwpunt: 7°C
Vochtigheid: 63%
Barometer: 1034 hPa
Bewolking: Mostly Cloudy
Zicht: meer dan 10 km
Bewolking: Licht bewolkt 3000 ft,
Grotendeels bewolkt 3500 ft
EBOS 221020Z 01014KT 9999 FEW030 BKN035 14/07 Q1034 NOSIG
LFQQ - Lille/Lesquin, France
Afstand tot: Z 40 km
Gewijzigd: 22-10-2018 12:30
Bewolking  
Bewolking  
   Wind: Noorden 24.1 km/h
Wind: Noorden 24.1 km/h
Temperatuur: 14°C
Dauwpunt: 8°C
Vochtigheid: 67%
Barometer: 1033 hPa
Bewolking: Overcast
Zicht: meer dan 10 km
Bewolking: Bewolking 3300 ft
LFQQ 221030Z AUTO 36013KT 330V030 9999 OVC033 14/08 Q1033 NOSIG
EBFN - Koksijde (bel-Af, Belgium
Afstand tot: WNW 43 km
Gewijzigd: 22-10-2018 12:25
Grotendeels bewolkt  
Grotendeels bewolkt  
   Wind: Noorden 27.8 km/h
Wind: Noorden 27.8 km/h
Temperatuur: 14°C
Dauwpunt: 5°C
Vochtigheid: 55%
Barometer: 1034 hPa
Bewolking: Mostly Cloudy
Zicht: meer dan 10 km
Bewolking: Licht bewolkt 2300 ft,
Grotendeels bewolkt 3500 ft
EBFN 221025Z 01015KT 9999 FEW023 BKN035 14/05 Q1034 BLU BLU
EBCV - Chievres Ab, Belgium
Afstand tot: ZO 59 km
Gewijzigd: 22-10-2018 12:25
Bewolking  
Bewolking  
   Wind: NNO 22.2 km/h
Wind: NNO 22.2 km/h
Temperatuur: 14°C
Dauwpunt: 10°C
Vochtigheid: 77%
Barometer: 1033 hPa
Bewolking: Overcast
Zicht: meer dan 10 km
Bewolking: Bewolking 2500 ft
EBCV 221025Z AUTO 02012KT 9999 OVC025/// 14/10 Q1033 BLU
EHFS - Vlissingen, Netherlands
Afstand tot: NNO 65 km
Gewijzigd: 22-10-2018 12:25
Licht bewolkt  
Licht bewolkt  
   Wind: NNO 24.1 km/h
Wind: NNO 24.1 km/h
Temperatuur: 15°C
Dauwpunt: 7°C
Vochtigheid: 59%
Barometer: 1033 hPa
Bewolking: Few Clouds
Zicht: meer dan 10 km
Bewolking: Licht bewolkt 3500 ft
EHFS 221025Z AUTO 02013KT 350V060 9999 FEW035/// 15/07 Q1033 W///H///
EBBR - Brussels Nationa, Belgium
Afstand tot: O 91 km
Gewijzigd: 22-10-2018 12:20
Grotendeels bewolkt  
Grotendeels bewolkt  
   Wind: NNO 16.7 km/h
Wind: NNO 16.7 km/h
Temperatuur: 14°C
Dauwpunt: 10°C
Vochtigheid: 77%
Barometer: 1033 hPa
Bewolking: Mostly Cloudy
Zicht: meer dan 10 km
Bewolking: Licht bewolkt 1700 ft,
Gedeeltelijk bewolkt 1900 ft,
Grotendeels bewolkt 2400 ft
EBBR 221020Z 03009KT 9999 FEW017 SCT019 BKN024 14/10 Q1033 NOSIG
EBAW - Antwerp/Deurne, Belgium
Afstand tot: ONO 94 km
Gewijzigd: 22-10-2018 12:20
Gedeeltelijk bewolkt  
Gedeeltelijk bewolkt  
   Wind: Noorden 18.5 km/h
Wind: Noorden 18.5 km/h
Temperatuur: 14°C
Dauwpunt: 8°C
Vochtigheid: 67%
Barometer: 1033 hPa
Bewolking: Partly Cloudy
Zicht: meer dan 10 km
Bewolking: Licht bewolkt 2600 ft,
Gedeeltelijk bewolkt 4000 ft
EBAW 221020Z 01010KT 340V070 9999 FEW026 SCT040 14/08 Q1033 NOSIG
EHWO - Woensdrecht Rnla, Netherlands
Afstand tot: NO 98 km
Gewijzigd: 22-10-2018 12:45
Licht bewolkt  
Licht bewolkt  
   Wind: NNO 14.8 km/h
Wind: NNO 14.8 km/h
Temperatuur: 15°C
Dauwpunt: 8°C
Vochtigheid: 63%
Barometer: 1033 hPa
Bewolking: Few Clouds
Zicht: meer dan 10 km
Bewolking: Licht bewolkt 3800 ft
EHWO 221045Z AUTO 02008KT 320V080 9999 FEW038 15/08 Q1033 BLU 01008KT 9999 BKN035
EBCI - Charleroi/Gossel, Belgium
Afstand tot: OZO 102 km
Gewijzigd: 22-10-2018 12:20
Grotendeels bewolkt  
Grotendeels bewolkt  
   Wind: NNO 20.4 km/h
Wind: NNO 20.4 km/h
Temperatuur: 12°C
Dauwpunt: 10°C
Vochtigheid: 88%
Barometer: 1032 hPa
Bewolking: Mostly Cloudy
Zicht: meer dan 10 km
Bewolking: Gedeeltelijk bewolkt 1100 ft,
Grotendeels bewolkt 1500 ft
EBCI 221020Z 02011KT 9999 SCT011 BKN015 12/10 Q1032 NOSIG

Script ontwikkeld door  Saratoga-weather.org Aangepast voor de template door  Weerstation Leuven